Terminal Aerodrome Forecast
Issued by NWS Boston, MA

Home | Current Version | Previous Version | Text Only | Print | Product List | Glossary On
Versions: 1 2 3 4 5 6 7 8 9 10 11 12 13 14 15 16 17 18 19 20 21 22 23
000
FTUS41 KBOX 202340
TAFBDL
TAF
KBDL 202340Z 2100/2206 18004KT P6SM SCT025 OVC040
     FM210200 VRB03KT P6SM VCSH OVC025
     FM210500 00000KT 2SM BR VCSH OVC010
     FM211000 00000KT 3SM BR OVC015
     FM211600 21004KT P6SM BKN250=

USA.gov is the U.S. government's official web portal to all federal, state and local government web resources and services.